sensor_id;sensor_type;location;lat;lon;timestamp;P1;durP1;ratioP1;P2;durP2;ratioP2
52692;SDS011;68218;51.012;-1.648;2023-06-14T00:01:43;18.70;;;17.20;;
52692;SDS011;68218;51.012;-1.648;2023-06-14T00:04:11;16.25;;;14.95;;
52692;SDS011;68218;51.012;-1.648;2023-06-14T00:06:38;19.45;;;17.95;;
52692;SDS011;68218;51.012;-1.648;2023-06-14T00:09:03;18.98;;;17.58;;
52692;SDS011;68218;51.012;-1.648;2023-06-14T00:11:29;19.15;;;17.45;;
52692;SDS011;68218;51.012;-1.648;2023-06-14T00:13:55;15.38;;;14.18;;
52692;SDS011;68218;51.012;-1.648;2023-06-14T00:16:21;18.95;;;17.42;;
52692;SDS011;68218;51.012;-1.648;2023-06-14T00:18:47;15.73;;;14.32;;
52692;SDS011;68218;51.012;-1.648;2023-06-14T00:21:13;15.80;;;14.50;;
52692;SDS011;68218;51.012;-1.648;2023-06-14T00:23:39;18.02;;;16.63;;
52692;SDS011;68218;51.012;-1.648;2023-06-14T00:26:04;18.85;;;17.15;;
52692;SDS011;68218;51.012;-1.648;2023-06-14T00:28:30;18.63;;;17.05;;
52692;SDS011;68218;51.012;-1.648;2023-06-14T00:30:55;19.45;;;17.77;;
52692;SDS011;68218;51.012;-1.648;2023-06-14T00:33:21;18.80;;;17.20;;
52692;SDS011;68218;51.012;-1.648;2023-06-14T00:35:46;19.10;;;17.63;;
52692;SDS011;68218;51.012;-1.648;2023-06-14T00:38:12;19.90;;;18.40;;
52692;SDS011;68218;51.012;-1.648;2023-06-14T00:40:38;19.00;;;17.60;;
52692;SDS011;68218;51.012;-1.648;2023-06-14T00:43:03;19.23;;;17.83;;
52692;SDS011;68218;51.012;-1.648;2023-06-14T00:45:29;19.45;;;17.77;;
52692;SDS011;68218;51.012;-1.648;2023-06-14T00:47:56;20.05;;;18.55;;
52692;SDS011;68218;51.012;-1.648;2023-06-14T00:50:22;17.63;;;16.23;;
52692;SDS011;68218;51.012;-1.648;2023-06-14T00:52:49;19.20;;;17.67;;
52692;SDS011;68218;51.012;-1.648;2023-06-14T00:55:14;16.25;;;14.98;;
52692;SDS011;68218;51.012;-1.648;2023-06-14T00:57:40;19.55;;;17.85;;
52692;SDS011;68218;51.012;-1.648;2023-06-14T01:00:07;18.17;;;16.77;;
52692;SDS011;68218;51.012;-1.648;2023-06-14T01:02:36;19.42;;;17.92;;
52692;SDS011;68218;51.012;-1.648;2023-06-14T01:05:02;18.77;;;17.38;;
52692;SDS011;68218;51.012;-1.648;2023-06-14T01:15:58;15.70;;;14.38;;
52692;SDS011;68218;51.012;-1.648;2023-06-14T01:18:24;19.88;;;18.23;;
52692;SDS011;68218;51.012;-1.648;2023-06-14T01:20:50;19.10;;;17.30;;
52692;SDS011;68218;51.012;-1.648;2023-06-14T01:23:18;18.58;;;17.17;;
52692;SDS011;68218;51.012;-1.648;2023-06-14T01:25:44;18.92;;;17.52;;
52692;SDS011;68218;51.012;-1.648;2023-06-14T01:28:11;17.73;;;16.02;;
52692;SDS011;68218;51.012;-1.648;2023-06-14T01:30:43;16.75;;;15.40;;
52692;SDS011;68218;51.012;-1.648;2023-06-14T01:33:14;16.33;;;14.98;;
52692;SDS011;68218;51.012;-1.648;2023-06-14T01:35:42;17.15;;;15.52;;
52692;SDS011;68218;51.012;-1.648;2023-06-14T01:38:08;17.17;;;15.77;;
52692;SDS011;68218;51.012;-1.648;2023-06-14T01:40:34;18.08;;;16.67;;
52692;SDS011;68218;51.012;-1.648;2023-06-14T01:43:00;17.88;;;16.48;;
52692;SDS011;68218;51.012;-1.648;2023-06-14T01:45:27;18.10;;;16.73;;
52692;SDS011;68218;51.012;-1.648;2023-06-14T01:47:54;19.13;;;17.63;;
52692;SDS011;68218;51.012;-1.648;2023-06-14T01:50:20;19.30;;;17.73;;
52692;SDS011;68218;51.012;-1.648;2023-06-14T01:52:46;17.55;;;16.25;;
52692;SDS011;68218;51.012;-1.648;2023-06-14T01:55:11;15.30;;;14.18;;
52692;SDS011;68218;51.012;-1.648;2023-06-14T01:57:37;18.63;;;17.13;;
52692;SDS011;68218;51.012;-1.648;2023-06-14T02:00:03;17.58;;;16.27;;
52692;SDS011;68218;51.012;-1.648;2023-06-14T02:02:29;17.70;;;16.40;;
52692;SDS011;68218;51.012;-1.648;2023-06-14T02:04:54;18.38;;;16.98;;
52692;SDS011;68218;51.012;-1.648;2023-06-14T02:07:22;18.00;;;16.50;;
52692;SDS011;68218;51.012;-1.648;2023-06-14T02:09:48;18.00;;;16.70;;
52692;SDS011;68218;51.012;-1.648;2023-06-14T02:12:13;18.15;;;16.85;;
52692;SDS011;68218;51.012;-1.648;2023-06-14T02:14:38;19.00;;;17.50;;
52692;SDS011;68218;51.012;-1.648;2023-06-14T02:17:04;18.92;;;17.13;;
52692;SDS011;68218;51.012;-1.648;2023-06-14T02:19:31;17.48;;;16.15;;
52692;SDS011;68218;51.012;-1.648;2023-06-14T02:21:56;17.75;;;16.42;;
52692;SDS011;68218;51.012;-1.648;2023-06-14T02:24:22;16.77;;;15.57;;
52692;SDS011;68218;51.012;-1.648;2023-06-14T02:26:48;17.73;;;16.30;;
52692;SDS011;68218;51.012;-1.648;2023-06-14T02:29:14;27.35;;;16.63;;
52692;SDS011;68218;51.012;-1.648;2023-06-14T02:31:41;16.83;;;15.63;;
52692;SDS011;68218;51.012;-1.648;2023-06-14T02:34:06;17.27;;;15.82;;
52692;SDS011;68218;51.012;-1.648;2023-06-14T02:36:33;15.65;;;14.50;;
52692;SDS011;68218;51.012;-1.648;2023-06-14T02:38:59;17.20;;;15.90;;
52692;SDS011;68218;51.012;-1.648;2023-06-14T02:41:25;18.50;;;16.95;;
52692;SDS011;68218;51.012;-1.648;2023-06-14T02:43:51;18.58;;;17.17;;
52692;SDS011;68218;51.012;-1.648;2023-06-14T02:46:17;19.52;;;18.02;;
52692;SDS011;68218;51.012;-1.648;2023-06-14T02:48:43;18.35;;;16.98;;
52692;SDS011;68218;51.012;-1.648;2023-06-14T02:51:08;18.17;;;16.88;;
52692;SDS011;68218;51.012;-1.648;2023-06-14T02:53:34;17.85;;;16.55;;
52692;SDS011;68218;51.012;-1.648;2023-06-14T02:56:00;18.52;;;17.13;;
52692;SDS011;68218;51.012;-1.648;2023-06-14T02:58:26;18.52;;;16.67;;
52692;SDS011;68218;51.012;-1.648;2023-06-14T03:00:51;16.55;;;15.13;;
52692;SDS011;68218;51.012;-1.648;2023-06-14T03:03:18;17.85;;;16.45;;
52692;SDS011;68218;51.012;-1.648;2023-06-14T03:05:44;17.42;;;15.98;;
52692;SDS011;68218;51.012;-1.648;2023-06-14T03:08:12;14.32;;;13.18;;
52692;SDS011;68218;51.012;-1.648;2023-06-14T03:10:44;13.63;;;12.63;;
52692;SDS011;68218;51.012;-1.648;2023-06-14T03:13:11;15.65;;;14.35;;
52692;SDS011;68218;51.012;-1.648;2023-06-14T03:15:37;17.05;;;15.32;;
52692;SDS011;68218;51.012;-1.648;2023-06-14T03:18:03;12.85;;;11.60;;
52692;SDS011;68218;51.012;-1.648;2023-06-14T03:20:29;17.00;;;15.52;;
52692;SDS011;68218;51.012;-1.648;2023-06-14T03:22:54;17.60;;;16.27;;
52692;SDS011;68218;51.012;-1.648;2023-06-14T03:25:20;17.20;;;15.98;;
52692;SDS011;68218;51.012;-1.648;2023-06-14T03:27:47;17.52;;;16.13;;
52692;SDS011;68218;51.012;-1.648;2023-06-14T03:30:12;18.48;;;16.65;;
52692;SDS011;68218;51.012;-1.648;2023-06-14T03:32:38;16.83;;;15.45;;
52692;SDS011;68218;51.012;-1.648;2023-06-14T03:35:03;17.65;;;16.35;;
52692;SDS011;68218;51.012;-1.648;2023-06-14T03:37:30;18.92;;;17.58;;
52692;SDS011;68218;51.012;-1.648;2023-06-14T03:39:55;17.45;;;16.17;;
52692;SDS011;68218;51.012;-1.648;2023-06-14T03:42:20;16.63;;;15.43;;
52692;SDS011;68218;51.012;-1.648;2023-06-14T03:44:46;17.33;;;16.02;;
52692;SDS011;68218;51.012;-1.648;2023-06-14T03:47:11;16.95;;;15.75;;
52692;SDS011;68218;51.012;-1.648;2023-06-14T03:49:37;16.70;;;15.45;;
52692;SDS011;68218;51.012;-1.648;2023-06-14T03:52:02;14.60;;;13.50;;
52692;SDS011;68218;51.012;-1.648;2023-06-14T03:54:28;17.25;;;15.80;;
52692;SDS011;68218;51.012;-1.648;2023-06-14T03:56:54;13.70;;;12.70;;
52692;SDS011;68218;51.012;-1.648;2023-06-14T03:59:21;16.67;;;15.38;;
52692;SDS011;68218;51.012;-1.648;2023-06-14T04:01:47;15.40;;;14.18;;
52692;SDS011;68218;51.012;-1.648;2023-06-14T04:04:13;16.38;;;14.88;;
52692;SDS011;68218;51.012;-1.648;2023-06-14T04:06:41;13.00;;;11.90;;
52692;SDS011;68218;51.012;-1.648;2023-06-14T04:09:07;14.80;;;13.60;;
52692;SDS011;68218;51.012;-1.648;2023-06-14T04:11:33;14.80;;;13.70;;
52692;SDS011;68218;51.012;-1.648;2023-06-14T04:13:58;15.00;;;13.80;;
52692;SDS011;68218;51.012;-1.648;2023-06-14T04:16:24;15.48;;;13.88;;
52692;SDS011;68218;51.012;-1.648;2023-06-14T04:18:50;15.55;;;14.25;;
52692;SDS011;68218;51.012;-1.648;2023-06-14T04:21:17;15.60;;;14.40;;
52692;SDS011;68218;51.012;-1.648;2023-06-14T04:23:43;16.00;;;14.80;;
52692;SDS011;68218;51.012;-1.648;2023-06-14T04:26:09;15.75;;;14.18;;
52692;SDS011;68218;51.012;-1.648;2023-06-14T04:28:35;15.75;;;14.48;;
52692;SDS011;68218;51.012;-1.648;2023-06-14T04:31:05;14.82;;;13.70;;
52692;SDS011;68218;51.012;-1.648;2023-06-14T04:33:34;15.13;;;13.95;;
52692;SDS011;68218;51.012;-1.648;2023-06-14T04:36:08;15.63;;;14.23;;
52692;SDS011;68218;51.012;-1.648;2023-06-14T04:38:37;12.85;;;11.75;;
52692;SDS011;68218;51.012;-1.648;2023-06-14T04:41:03;15.35;;;13.95;;
52692;SDS011;68218;51.012;-1.648;2023-06-14T04:43:29;14.48;;;13.48;;
52692;SDS011;68218;51.012;-1.648;2023-06-14T04:45:54;14.77;;;13.63;;
52692;SDS011;68218;51.012;-1.648;2023-06-14T04:48:21;14.32;;;13.32;;
52692;SDS011;68218;51.012;-1.648;2023-06-14T04:50:47;14.88;;;13.48;;
52692;SDS011;68218;51.012;-1.648;2023-06-14T04:53:18;14.15;;;13.15;;
52692;SDS011;68218;51.012;-1.648;2023-06-14T04:55:46;15.15;;;14.00;;
52692;SDS011;68218;51.012;-1.648;2023-06-14T04:58:12;13.90;;;12.82;;
52692;SDS011;68218;51.012;-1.648;2023-06-14T05:00:37;13.05;;;12.15;;
52692;SDS011;68218;51.012;-1.648;2023-06-14T05:03:03;13.98;;;12.63;;
52692;SDS011;68218;51.012;-1.648;2023-06-14T05:05:30;14.15;;;13.15;;
52692;SDS011;68218;51.012;-1.648;2023-06-14T05:07:57;15.20;;;14.10;;
52692;SDS011;68218;51.012;-1.648;2023-06-14T05:10:22;14.85;;;13.75;;
52692;SDS011;68218;51.012;-1.648;2023-06-14T05:12:48;13.73;;;12.82;;
52692;SDS011;68218;51.012;-1.648;2023-06-14T05:15:14;14.48;;;13.48;;
52692;SDS011;68218;51.012;-1.648;2023-06-14T05:17:39;13.65;;;12.75;;
52692;SDS011;68218;51.012;-1.648;2023-06-14T05:20:06;13.98;;;12.88;;
52692;SDS011;68218;51.012;-1.648;2023-06-14T05:22:32;14.63;;;13.52;;
52692;SDS011;68218;51.012;-1.648;2023-06-14T05:24:57;14.32;;;13.30;;
52692;SDS011;68218;51.012;-1.648;2023-06-14T05:27:23;14.98;;;13.77;;
52692;SDS011;68218;51.012;-1.648;2023-06-14T05:29:49;15.57;;;14.10;;
52692;SDS011;68218;51.012;-1.648;2023-06-14T05:32:15;15.20;;;13.88;;
52692;SDS011;68218;51.012;-1.648;2023-06-14T05:34:41;12.55;;;11.65;;
52692;SDS011;68218;51.012;-1.648;2023-06-14T05:37:06;12.70;;;11.68;;
52692;SDS011;68218;51.012;-1.648;2023-06-14T05:39:32;12.00;;;11.10;;
52692;SDS011;68218;51.012;-1.648;2023-06-14T05:41:57;14.05;;;13.15;;
52692;SDS011;68218;51.012;-1.648;2023-06-14T05:44:23;13.82;;;12.73;;
52692;SDS011;68218;51.012;-1.648;2023-06-14T05:46:48;14.10;;;13.10;;
52692;SDS011;68218;51.012;-1.648;2023-06-14T05:49:13;14.65;;;13.50;;
52692;SDS011;68218;51.012;-1.648;2023-06-14T05:51:39;14.73;;;13.63;;
52692;SDS011;68218;51.012;-1.648;2023-06-14T05:54:04;13.75;;;12.75;;
52692;SDS011;68218;51.012;-1.648;2023-06-14T05:56:30;14.07;;;13.07;;
52692;SDS011;68218;51.012;-1.648;2023-06-14T05:58:55;14.30;;;13.25;;
52692;SDS011;68218;51.012;-1.648;2023-06-14T06:01:20;11.75;;;10.85;;
52692;SDS011;68218;51.012;-1.648;2023-06-14T06:03:46;15.23;;;14.02;;
52692;SDS011;68218;51.012;-1.648;2023-06-14T06:06:12;14.93;;;13.73;;
52692;SDS011;68218;51.012;-1.648;2023-06-14T06:08:38;12.25;;;11.18;;
52692;SDS011;68218;51.012;-1.648;2023-06-14T06:11:04;13.95;;;12.95;;
52692;SDS011;68218;51.012;-1.648;2023-06-14T06:13:29;14.48;;;13.38;;
52692;SDS011;68218;51.012;-1.648;2023-06-14T06:15:55;13.32;;;12.38;;
52692;SDS011;68218;51.012;-1.648;2023-06-14T06:18:21;14.52;;;13.15;;
52692;SDS011;68218;51.012;-1.648;2023-06-14T06:20:46;14.07;;;12.98;;
52692;SDS011;68218;51.012;-1.648;2023-06-14T06:23:12;13.73;;;12.63;;
52692;SDS011;68218;51.012;-1.648;2023-06-14T06:25:37;14.27;;;12.98;;
52692;SDS011;68218;51.012;-1.648;2023-06-14T06:28:03;13.52;;;12.52;;
52692;SDS011;68218;51.012;-1.648;2023-06-14T06:30:28;14.68;;;13.68;;
52692;SDS011;68218;51.012;-1.648;2023-06-14T06:32:54;14.48;;;12.98;;
52692;SDS011;68218;51.012;-1.648;2023-06-14T06:35:20;13.25;;;12.35;;
52692;SDS011;68218;51.012;-1.648;2023-06-14T06:37:46;11.20;;;10.25;;
52692;SDS011;68218;51.012;-1.648;2023-06-14T06:40:11;13.55;;;12.55;;
52692;SDS011;68218;51.012;-1.648;2023-06-14T06:42:37;14.02;;;12.88;;
52692;SDS011;68218;51.012;-1.648;2023-06-14T06:45:02;13.85;;;12.75;;
52692;SDS011;68218;51.012;-1.648;2023-06-14T06:47:28;15.00;;;13.88;;
52692;SDS011;68218;51.012;-1.648;2023-06-14T06:49:54;14.40;;;13.32;;
52692;SDS011;68218;51.012;-1.648;2023-06-14T06:52:19;14.05;;;13.02;;
52692;SDS011;68218;51.012;-1.648;2023-06-14T06:54:45;14.48;;;13.48;;
52692;SDS011;68218;51.012;-1.648;2023-06-14T06:57:10;12.68;;;11.10;;
52692;SDS011;68218;51.012;-1.648;2023-06-14T06:59:36;15.60;;;14.25;;
52692;SDS011;68218;51.012;-1.648;2023-06-14T07:02:01;13.93;;;12.93;;
52692;SDS011;68218;51.012;-1.648;2023-06-14T07:04:26;15.98;;;14.65;;
52692;SDS011;68218;51.012;-1.648;2023-06-14T07:06:52;14.18;;;12.98;;
52692;SDS011;68218;51.012;-1.648;2023-06-14T07:09:17;12.30;;;11.23;;
52692;SDS011;68218;51.012;-1.648;2023-06-14T07:11:44;15.10;;;13.80;;
52692;SDS011;68218;51.012;-1.648;2023-06-14T07:14:10;15.55;;;14.35;;
52692;SDS011;68218;51.012;-1.648;2023-06-14T07:16:36;14.27;;;13.18;;
52692;SDS011;68218;51.012;-1.648;2023-06-14T07:19:02;15.40;;;13.95;;
52692;SDS011;68218;51.012;-1.648;2023-06-14T07:21:28;17.30;;;15.93;;
52692;SDS011;68218;51.012;-1.648;2023-06-14T07:23:53;15.38;;;14.07;;
52692;SDS011;68218;51.012;-1.648;2023-06-14T07:26:19;17.23;;;15.93;;
52692;SDS011;68218;51.012;-1.648;2023-06-14T07:28:45;15.80;;;14.68;;
52692;SDS011;68218;51.012;-1.648;2023-06-14T07:31:11;20.90;;;19.30;;
52692;SDS011;68218;51.012;-1.648;2023-06-14T07:33:37;22.58;;;20.83;;
52692;SDS011;68218;51.012;-1.648;2023-06-14T07:36:03;18.05;;;16.70;;
52692;SDS011;68218;51.012;-1.648;2023-06-14T07:38:29;21.23;;;19.70;;
52692;SDS011;68218;51.012;-1.648;2023-06-14T07:40:54;21.95;;;20.35;;
52692;SDS011;68218;51.012;-1.648;2023-06-14T07:43:19;21.58;;;20.08;;
52692;SDS011;68218;51.012;-1.648;2023-06-14T07:45:45;21.90;;;20.33;;
52692;SDS011;68218;51.012;-1.648;2023-06-14T07:48:11;20.83;;;19.42;;
52692;SDS011;68218;51.012;-1.648;2023-06-14T07:50:36;20.95;;;19.20;;
52692;SDS011;68218;51.012;-1.648;2023-06-14T07:53:02;20.38;;;18.83;;
52692;SDS011;68218;51.012;-1.648;2023-06-14T07:55:27;21.30;;;19.48;;
52692;SDS011;68218;51.012;-1.648;2023-06-14T07:57:53;20.98;;;19.13;;
52692;SDS011;68218;51.012;-1.648;2023-06-14T08:00:19;20.60;;;19.10;;
52692;SDS011;68218;51.012;-1.648;2023-06-14T08:02:45;21.42;;;19.92;;
52692;SDS011;68218;51.012;-1.648;2023-06-14T08:05:11;19.45;;;18.05;;
52692;SDS011;68218;51.012;-1.648;2023-06-14T08:07:37;19.25;;;17.95;;
52692;SDS011;68218;51.012;-1.648;2023-06-14T08:10:03;20.00;;;18.48;;
52692;SDS011;68218;51.012;-1.648;2023-06-14T08:12:30;22.05;;;20.42;;
52692;SDS011;68218;51.012;-1.648;2023-06-14T08:14:55;19.67;;;18.27;;
52692;SDS011;68218;51.012;-1.648;2023-06-14T08:17:21;19.50;;;18.20;;
52692;SDS011;68218;51.012;-1.648;2023-06-14T08:19:46;18.17;;;16.98;;
52692;SDS011;68218;51.012;-1.648;2023-06-14T08:22:11;21.05;;;19.58;;
52692;SDS011;68218;51.012;-1.648;2023-06-14T08:24:37;20.60;;;19.25;;
52692;SDS011;68218;51.012;-1.648;2023-06-14T08:27:04;21.20;;;19.58;;
52692;SDS011;68218;51.012;-1.648;2023-06-14T08:29:30;18.45;;;17.15;;
52692;SDS011;68218;51.012;-1.648;2023-06-14T08:31:56;20.33;;;18.92;;
52692;SDS011;68218;51.012;-1.648;2023-06-14T08:34:22;20.95;;;19.40;;
52692;SDS011;68218;51.012;-1.648;2023-06-14T08:36:49;21.00;;;19.55;;
52692;SDS011;68218;51.012;-1.648;2023-06-14T08:39:15;20.15;;;18.85;;
52692;SDS011;68218;51.012;-1.648;2023-06-14T08:41:41;20.05;;;18.50;;
52692;SDS011;68218;51.012;-1.648;2023-06-14T08:44:12;20.08;;;18.67;;
52692;SDS011;68218;51.012;-1.648;2023-06-14T08:46:37;20.27;;;18.88;;
52692;SDS011;68218;51.012;-1.648;2023-06-14T08:49:04;17.83;;;16.63;;
52692;SDS011;68218;51.012;-1.648;2023-06-14T08:51:31;16.50;;;15.30;;
52692;SDS011;68218;51.012;-1.648;2023-06-14T08:53:59;15.77;;;14.57;;
52692;SDS011;68218;51.012;-1.648;2023-06-14T08:56:27;15.60;;;14.15;;
52692;SDS011;68218;51.012;-1.648;2023-06-14T08:58:54;14.95;;;13.85;;
52692;SDS011;68218;51.012;-1.648;2023-06-14T09:01:21;15.88;;;14.57;;
52692;SDS011;68218;51.012;-1.648;2023-06-14T09:03:48;17.15;;;15.75;;
52692;SDS011;68218;51.012;-1.648;2023-06-14T09:06:14;16.02;;;14.82;;
52692;SDS011;68218;51.012;-1.648;2023-06-14T09:08:44;14.73;;;13.73;;
52692;SDS011;68218;51.012;-1.648;2023-06-14T09:11:11;16.17;;;14.85;;
52692;SDS011;68218;51.012;-1.648;2023-06-14T09:13:40;15.77;;;14.38;;
52692;SDS011;68218;51.012;-1.648;2023-06-14T09:16:07;17.77;;;16.27;;
52692;SDS011;68218;51.012;-1.648;2023-06-14T09:18:34;16.88;;;15.38;;
52692;SDS011;68218;51.012;-1.648;2023-06-14T09:21:07;16.85;;;15.50;;
52692;SDS011;68218;51.012;-1.648;2023-06-14T09:23:33;17.02;;;15.73;;
52692;SDS011;68218;51.012;-1.648;2023-06-14T09:26:13;16.45;;;15.25;;
52692;SDS011;68218;51.012;-1.648;2023-06-14T09:28:42;16.98;;;15.68;;
52692;SDS011;68218;51.012;-1.648;2023-06-14T09:31:12;15.93;;;14.63;;
52692;SDS011;68218;51.012;-1.648;2023-06-14T09:33:41;16.17;;;14.88;;
52692;SDS011;68218;51.012;-1.648;2023-06-14T09:36:12;17.58;;;15.98;;
52692;SDS011;68218;51.012;-1.648;2023-06-14T09:38:39;16.13;;;14.93;;
52692;SDS011;68218;51.012;-1.648;2023-06-14T09:41:05;16.13;;;15.02;;
52692;SDS011;68218;51.012;-1.648;2023-06-14T09:43:31;14.02;;;12.93;;
52692;SDS011;68218;51.012;-1.648;2023-06-14T09:46:00;17.00;;;15.77;;
52692;SDS011;68218;51.012;-1.648;2023-06-14T09:48:25;14.63;;;13.48;;
52692;SDS011;68218;51.012;-1.648;2023-06-14T09:50:51;15.90;;;14.70;;
52692;SDS011;68218;51.012;-1.648;2023-06-14T09:53:21;15.98;;;14.68;;
52692;SDS011;68218;51.012;-1.648;2023-06-14T09:55:50;15.65;;;14.55;;
52692;SDS011;68218;51.012;-1.648;2023-06-14T09:58:17;14.20;;;13.10;;
52692;SDS011;68218;51.012;-1.648;2023-06-14T10:00:45;15.35;;;14.02;;
52692;SDS011;68218;51.012;-1.648;2023-06-14T10:03:16;16.95;;;15.70;;
52692;SDS011;68218;51.012;-1.648;2023-06-14T10:05:49;16.40;;;15.13;;
52692;SDS011;68218;51.012;-1.648;2023-06-14T10:08:16;15.60;;;14.32;;
52692;SDS011;68218;51.012;-1.648;2023-06-14T10:10:45;15.50;;;14.32;;
52692;SDS011;68218;51.012;-1.648;2023-06-14T10:13:11;16.50;;;15.10;;
52692;SDS011;68218;51.012;-1.648;2023-06-14T10:15:52;17.33;;;15.70;;
52692;SDS011;68218;51.012;-1.648;2023-06-14T10:21:28;16.00;;;14.88;;
52692;SDS011;68218;51.012;-1.648;2023-06-14T10:24:03;16.90;;;15.68;;
52692;SDS011;68218;51.012;-1.648;2023-06-14T10:26:33;17.38;;;15.98;;
52692;SDS011;68218;51.012;-1.648;2023-06-14T10:29:07;14.18;;;13.18;;
52692;SDS011;68218;51.012;-1.648;2023-06-14T10:31:40;17.58;;;16.05;;
52692;SDS011;68218;51.012;-1.648;2023-06-14T10:34:07;17.67;;;16.30;;
52692;SDS011;68218;51.012;-1.648;2023-06-14T10:36:33;16.52;;;15.13;;
52692;SDS011;68218;51.012;-1.648;2023-06-14T10:41:28;17.50;;;16.13;;
52692;SDS011;68218;51.012;-1.648;2023-06-14T10:46:38;17.58;;;16.17;;
52692;SDS011;68218;51.012;-1.648;2023-06-14T10:49:45;17.98;;;16.67;;
52692;SDS011;68218;51.012;-1.648;2023-06-14T10:52:16;17.50;;;15.90;;
52692;SDS011;68218;51.012;-1.648;2023-06-14T10:57:34;18.92;;;17.42;;
52692;SDS011;68218;51.012;-1.648;2023-06-14T11:00:13;13.60;;;12.60;;
52692;SDS011;68218;51.012;-1.648;2023-06-14T11:05:48;17.17;;;15.98;;
52692;SDS011;68218;51.012;-1.648;2023-06-14T11:10:52;19.85;;;18.45;;
52692;SDS011;68218;51.012;-1.648;2023-06-14T11:13:19;17.42;;;15.90;;
52692;SDS011;68218;51.012;-1.648;2023-06-14T11:15:50;16.80;;;15.43;;
52692;SDS011;68218;51.012;-1.648;2023-06-14T11:18:17;23.55;;;21.95;;
52692;SDS011;68218;51.012;-1.648;2023-06-14T11:20:45;22.35;;;20.67;;
52692;SDS011;68218;51.012;-1.648;2023-06-14T11:23:11;18.02;;;16.63;;
52692;SDS011;68218;51.012;-1.648;2023-06-14T11:25:37;19.00;;;17.45;;
52692;SDS011;68218;51.012;-1.648;2023-06-14T11:28:02;18.27;;;16.75;;
52692;SDS011;68218;51.012;-1.648;2023-06-14T11:30:28;18.30;;;16.50;;
52692;SDS011;68218;51.012;-1.648;2023-06-14T11:32:54;21.42;;;19.75;;
52692;SDS011;68218;51.012;-1.648;2023-06-14T11:35:23;18.50;;;17.05;;
52692;SDS011;68218;51.012;-1.648;2023-06-14T11:37:53;21.67;;;20.08;;
52692;SDS011;68218;51.012;-1.648;2023-06-14T11:40:25;23.88;;;22.08;;
52692;SDS011;68218;51.012;-1.648;2023-06-14T11:43:02;22.33;;;20.63;;
52692;SDS011;68218;51.012;-1.648;2023-06-14T11:45:28;21.02;;;19.30;;
52692;SDS011;68218;51.012;-1.648;2023-06-14T11:47:55;18.20;;;16.90;;
52692;SDS011;68218;51.012;-1.648;2023-06-14T11:50:21;17.65;;;16.30;;
52692;SDS011;68218;51.012;-1.648;2023-06-14T11:52:52;18.27;;;16.88;;
52692;SDS011;68218;51.012;-1.648;2023-06-14T11:55:21;19.00;;;17.63;;
52692;SDS011;68218;51.012;-1.648;2023-06-14T11:57:47;17.73;;;16.33;;
52692;SDS011;68218;51.012;-1.648;2023-06-14T12:00:12;19.02;;;17.63;;
52692;SDS011;68218;51.012;-1.648;2023-06-14T12:02:40;17.08;;;15.68;;
52692;SDS011;68218;51.012;-1.648;2023-06-14T12:05:06;15.93;;;14.68;;
52692;SDS011;68218;51.012;-1.648;2023-06-14T12:07:34;19.17;;;17.67;;
52692;SDS011;68218;51.012;-1.648;2023-06-14T12:12:28;19.73;;;18.23;;
52692;SDS011;68218;51.012;-1.648;2023-06-14T12:14:57;16.50;;;15.20;;
52692;SDS011;68218;51.012;-1.648;2023-06-14T12:17:22;20.00;;;18.25;;
52692;SDS011;68218;51.012;-1.648;2023-06-14T12:19:48;20.15;;;18.52;;
52692;SDS011;68218;51.012;-1.648;2023-06-14T12:22:15;19.52;;;18.00;;
52692;SDS011;68218;51.012;-1.648;2023-06-14T12:24:44;19.30;;;17.92;;
52692;SDS011;68218;51.012;-1.648;2023-06-14T12:27:10;18.98;;;17.42;;
52692;SDS011;68218;51.012;-1.648;2023-06-14T12:29:40;16.00;;;14.80;;
52692;SDS011;68218;51.012;-1.648;2023-06-14T12:32:08;18.60;;;17.20;;
52692;SDS011;68218;51.012;-1.648;2023-06-14T12:34:34;20.08;;;18.58;;
52692;SDS011;68218;51.012;-1.648;2023-06-14T12:37:00;16.10;;;14.80;;
52692;SDS011;68218;51.012;-1.648;2023-06-14T12:39:26;19.30;;;17.83;;
52692;SDS011;68218;51.012;-1.648;2023-06-14T12:41:51;17.10;;;15.90;;
52692;SDS011;68218;51.012;-1.648;2023-06-14T12:44:17;19.52;;;17.90;;
52692;SDS011;68218;51.012;-1.648;2023-06-14T12:46:42;19.60;;;18.10;;
52692;SDS011;68218;51.012;-1.648;2023-06-14T12:49:11;19.75;;;18.25;;
52692;SDS011;68218;51.012;-1.648;2023-06-14T12:51:37;19.15;;;17.85;;
52692;SDS011;68218;51.012;-1.648;2023-06-14T12:54:04;19.63;;;18.20;;
52692;SDS011;68218;51.012;-1.648;2023-06-14T12:56:29;20.35;;;18.63;;
52692;SDS011;68218;51.012;-1.648;2023-06-14T12:58:55;19.48;;;18.05;;
52692;SDS011;68218;51.012;-1.648;2023-06-14T13:01:20;18.27;;;16.98;;
52692;SDS011;68218;51.012;-1.648;2023-06-14T13:03:46;16.67;;;15.27;;
52692;SDS011;68218;51.012;-1.648;2023-06-14T13:06:12;18.95;;;17.45;;
52692;SDS011;68218;51.012;-1.648;2023-06-14T13:08:37;18.58;;;17.15;;
52692;SDS011;68218;51.012;-1.648;2023-06-14T13:11:03;18.75;;;17.30;;
52692;SDS011;68218;51.012;-1.648;2023-06-14T13:13:28;19.25;;;17.67;;
52692;SDS011;68218;51.012;-1.648;2023-06-14T13:15:53;20.38;;;18.77;;
52692;SDS011;68218;51.012;-1.648;2023-06-14T13:18:19;19.58;;;18.17;;
52692;SDS011;68218;51.012;-1.648;2023-06-14T13:20:45;20.30;;;18.90;;
52692;SDS011;68218;51.012;-1.648;2023-06-14T13:23:11;19.95;;;18.45;;
52692;SDS011;68218;51.012;-1.648;2023-06-14T13:25:37;20.67;;;19.13;;
52692;SDS011;68218;51.012;-1.648;2023-06-14T13:28:03;19.80;;;18.40;;
52692;SDS011;68218;51.012;-1.648;2023-06-14T13:30:30;19.83;;;18.42;;
52692;SDS011;68218;51.012;-1.648;2023-06-14T13:32:56;20.33;;;18.92;;
52692;SDS011;68218;51.012;-1.648;2023-06-14T13:35:22;26.98;;;25.05;;
52692;SDS011;68218;51.012;-1.648;2023-06-14T13:37:47;24.00;;;22.30;;
52692;SDS011;68218;51.012;-1.648;2023-06-14T13:40:13;26.67;;;24.77;;
52692;SDS011;68218;51.012;-1.648;2023-06-14T13:42:38;27.63;;;25.67;;
52692;SDS011;68218;51.012;-1.648;2023-06-14T13:45:05;27.05;;;25.17;;
52692;SDS011;68218;51.012;-1.648;2023-06-14T13:47:31;19.50;;;18.10;;
52692;SDS011;68218;51.012;-1.648;2023-06-14T13:49:57;23.85;;;21.95;;
52692;SDS011;68218;51.012;-1.648;2023-06-14T13:52:23;26.35;;;24.27;;
52692;SDS011;68218;51.012;-1.648;2023-06-14T13:54:49;26.55;;;24.65;;
52692;SDS011;68218;51.012;-1.648;2023-06-14T13:57:14;25.27;;;23.38;;
52692;SDS011;68218;51.012;-1.648;2023-06-14T13:59:40;26.42;;;24.55;;
52692;SDS011;68218;51.012;-1.648;2023-06-14T14:02:06;18.52;;;17.02;;
52692;SDS011;68218;51.012;-1.648;2023-06-14T14:04:33;18.35;;;16.95;;
52692;SDS011;68218;51.012;-1.648;2023-06-14T14:07:02;20.90;;;19.10;;
52692;SDS011;68218;51.012;-1.648;2023-06-14T14:09:28;23.48;;;21.63;;
52692;SDS011;68218;51.012;-1.648;2023-06-14T14:11:53;27.30;;;25.25;;
52692;SDS011;68218;51.012;-1.648;2023-06-14T14:14:19;24.73;;;22.95;;
52692;SDS011;68218;51.012;-1.648;2023-06-14T14:16:44;25.00;;;23.20;;
52692;SDS011;68218;51.012;-1.648;2023-06-14T14:19:09;27.42;;;25.15;;
52692;SDS011;68218;51.012;-1.648;2023-06-14T14:21:35;26.50;;;24.60;;
52692;SDS011;68218;51.012;-1.648;2023-06-14T14:24:01;20.02;;;18.42;;
52692;SDS011;68218;51.012;-1.648;2023-06-14T14:26:26;20.80;;;19.23;;
52692;SDS011;68218;51.012;-1.648;2023-06-14T14:28:51;21.90;;;20.30;;
52692;SDS011;68218;51.012;-1.648;2023-06-14T14:31:17;19.35;;;17.95;;
52692;SDS011;68218;51.012;-1.648;2023-06-14T14:33:43;18.00;;;16.65;;